Aérodrome :
LOGIN :

S'inscrire | Disclaimer

   EN    FR    IT 

 










Légende :    VFR   VFR Marginal   IFR   IFR Intensif   IFR Très Intensif
Visi : 
Plafond : 
>= 8 km
>= 3000ft
5 à 8 km
1000 à 3000 ft
1500m à 5 km
500 à 1000 ft
800 à 1500m
200 à 500 ft
< 800m
< 200 ft
Symboles :   Orages  Brouillard  Fortes neiges  Fortes précipitations  Vent > 20 kt
SIGMETs :   Divers  Orages  Givrage  Turbulence  Onde Orograph.  Cendres Volcan.







- Altitude de l'aérodrome : 659 ft
- Code IATA : LYN
- Voir les cartes d'approche


LFLY - Lyon Bron

DERNIER METAR :
  • 251400Z AUTO 16006KT 130V210 CAVOK 27/13 Q1015 NOSIG

METARs EXPIRÉS :
  • 251330Z AUTO 14005KT 090V190 CAVOK 28/14 Q1015 NOSIG
  • 251300Z AUTO 15006KT 080V200 CAVOK 27/14 Q1015 NOSIG
  • 251230Z AUTO 16005KT 100V210 CAVOK 28/15 Q1015 NOSIG
  • 251200Z AUTO 18004KT 130V240 CAVOK 27/15 Q1016 NOSIG
  • 251130Z AUTO VRB05KT CAVOK 26/14 Q1016 NOSIG

TAF AMD TAF LFLY
Valide du 25 à 12h jusqu'au 26 à 12h UTC


251123Z 2512/2612 16005KT CAVOK
TEMPO 2520/2606 VRB02KT
ATIS : +33 4 72 15 87 96
Pas de NOTAMs connus pour ce terrain.



MET'MAP, la Météo Aéronautique d'un coup d'oeil ! - Copyright ORBIFLY Décembre 2007 - Disclaimer

ORBIFLY MET'MAP TEAM :

Programmation & Développement : Alexandra Zaïnal
Conception & Développement : Baudouin d'Aumeries
Co-Programmation & Développement : Marc-Olivier Méhu
Soutien technique & logistique : Manuel Goepfert

Contact : metmap@orbifly.com




SOURCES & CREDITS :

   NOAA